Time;durP1;ratioP1;P1;durP2;ratioP2;P2;SDS_P1;SDS_P2;PMS_P1;PMS_P2;Temp;Humidity;BMP_temperature;BMP_pressure;BME280_temperature;BME280_humidity;BME280_pressure;Samples;Min_cycle;Max_cycle;Signal;HPM_P1;HPM_P2
2023/11/26 00:01:29;;;;;;;63.50;36.50;;;;;;;-1.51;100.00;98578.05;105648;1256;74367;-56
2023/11/26 00:03:57;;;;;;;62.30;38.10;;;;;;;-1.48;100.00;98578.52;105216;1255;65684;-56
2023/11/26 00:06:26;;;;;;;63.40;36.10;;;;;;;-1.43;100.00;98579.30;105536;1255;71571;-56
2023/11/26 00:08:54;;;;;;;72.70;39.50;;;;;;;-1.39;100.00;98584.52;105165;1256;62914;-57
2023/11/26 00:11:21;;;;;;;69.20;39.10;;;;;;;-1.37;100.00;98593.10;105141;1260;60352;-57
2023/11/26 00:13:49;;;;;;;61.40;37.30;;;;;;;-1.37;100.00;98591.70;105105;1260;72655;-57
2023/11/26 00:16:16;;;;;;;69.20;38.10;;;;;;;-1.41;100.00;98586.84;105160;1255;66914;-56
2023/11/26 00:18:43;;;;;;;68.80;39.60;;;;;;;-1.45;100.00;98590.60;105027;1260;71468;-57
2023/11/26 00:21:11;;;;;;;69.50;41.20;;;;;;;-1.50;100.00;98586.65;108746;1255;61688;-55
2023/11/26 00:23:39;;;;;;;81.80;44.90;;;;;;;-1.53;100.00;98588.63;108853;1256;60068;-55
2023/11/26 00:26:06;;;;;;;77.10;42.50;;;;;;;-1.54;100.00;98589.52;108750;1255;73922;-58
2023/11/26 00:28:35;;;;;;;80.30;46.00;;;;;;;-1.55;100.00;98594.15;108860;1255;65978;-56
2023/11/26 00:31:03;;;;;;;80.50;47.40;;;;;;;-1.54;100.00;98591.83;107952;1256;71528;-57
2023/11/26 00:33:31;;;;;;;88.80;50.40;;;;;;;-1.53;100.00;98587.06;105012;1261;60969;-56
2023/11/26 00:35:58;;;;;;;89.80;51.20;;;;;;;-1.50;100.00;98580.66;108804;1255;58857;-55
2023/11/26 00:38:26;;;;;;;75.40;43.50;;;;;;;-1.45;100.00;98583.40;108730;1253;73289;-57
2023/11/26 00:40:53;;;;;;;79.20;43.30;;;;;;;-1.41;100.00;98583.32;108837;1255;65731;-55
2023/11/26 00:43:21;;;;;;;75.70;44.80;;;;;;;-1.37;100.00;98585.20;108905;1255;73546;-55
2023/11/26 00:45:49;;;;;;;88.80;47.20;;;;;;;-1.34;100.00;98582.99;108811;1255;60908;-56
2023/11/26 00:48:16;;;;;;;81.30;48.80;;;;;;;-1.31;100.00;98583.13;108641;1255;61183;-56
2023/11/26 00:50:43;;;;;;;81.00;47.00;;;;;;;-1.29;100.00;98579.40;106452;1260;72375;-58
2023/11/26 00:53:12;;;;;;;81.80;48.50;;;;;;;-1.26;100.00;98575.45;105111;1261;66400;-56
2023/11/26 00:55:39;;;;;;;93.00;52.00;;;;;;;-1.24;100.00;98573.14;107567;1256;73071;-57
2023/11/26 00:58:07;;;;;;;88.70;52.90;;;;;;;-1.24;100.00;98564.67;105069;1256;60538;-56
2023/11/26 01:00:34;;;;;;;92.30;54.70;;;;;;;-1.24;100.00;98561.70;105060;1261;60402;-54
2023/11/26 01:03:02;;;;;;;93.30;53.50;;;;;;;-1.26;100.00;98555.04;105195;1255;74213;-55
2023/11/26 01:05:30;;;;;;;84.30;51.40;;;;;;;-1.28;100.00;98551.23;108699;1260;66681;-56
2023/11/26 01:07:57;;;;;;;86.20;52.40;;;;;;;-1.30;100.00;98549.86;105262;1261;71812;-56
2023/11/26 01:10:25;;;;;;;87.30;53.90;;;;;;;-1.34;100.00;98544.98;105197;1260;60827;-55
2023/11/26 01:12:53;;;;;;;91.40;51.00;;;;;;;-1.36;100.00;98544.16;106038;1256;60102;-55
2023/11/26 01:15:20;;;;;;;76.90;47.10;;;;;;;-1.39;100.00;98543.52;105079;1260;73890;-56
2023/11/26 01:17:48;;;;;;;78.60;46.30;;;;;;;-1.39;100.00;98534.02;105132;1256;66063;-57
2023/11/26 01:20:16;;;;;;;75.00;45.50;;;;;;;-1.38;100.00;98531.19;105144;1255;71674;-57
2023/11/26 01:22:44;;;;;;;72.00;41.60;;;;;;;-1.36;100.00;98530.26;108561;1255;60529;-57
2023/11/26 01:25:12;;;;;;;71.20;42.10;;;;;;;-1.33;100.00;98533.00;105159;1255;60748;-56
2023/11/26 01:27:39;;;;;;;70.80;42.40;;;;;;;-1.29;100.00;98546.67;105162;1261;73969;-58
2023/11/26 01:30:07;;;;;;;71.00;44.00;;;;;;;-1.25;100.00;98549.56;105115;1255;65126;-54
2023/11/26 01:32:35;;;;;;;70.50;40.40;;;;;;;-1.20;100.00;98545.77;107420;1259;71462;-55
2023/11/26 01:35:04;;;;;;;69.40;42.60;;;;;;;-1.15;100.00;98543.20;106848;1255;60549;-55
2023/11/26 01:37:33;;;;;;;68.30;40.50;;;;;;;-1.09;100.00;98543.07;105894;1256;60583;-55
2023/11/26 01:40:00;;;;;;;70.20;39.90;;;;;;;-1.03;100.00;98541.18;105155;1255;71677;-56
2023/11/26 01:42:27;;;;;;;62.90;38.80;;;;;;;-0.99;100.00;98543.56;105216;1260;65813;-58
2023/11/26 01:44:55;;;;;;;76.20;41.70;;;;;;;-0.95;100.00;98536.81;105172;1260;72033;-57
2023/11/26 01:47:24;;;;;;;62.30;37.60;;;;;;;-0.91;100.00;98533.16;105427;1259;60855;-56
2023/11/26 01:49:51;;;;;;;66.90;39.40;;;;;;;-0.87;100.00;98531.52;105441;1260;61076;-56
2023/11/26 01:52:20;;;;;;;67.40;41.00;;;;;;;-0.83;100.00;98531.22;105096;1260;73938;-55
2023/11/26 01:54:47;;;;;;;61.60;37.60;;;;;;;-0.78;100.00;98527.98;105152;1261;66531;-55
2023/11/26 01:57:15;;;;;;;63.80;37.70;;;;;;;-0.74;100.00;98527.70;105192;1261;73418;-56
2023/11/26 01:59:42;;;;;;;64.40;39.10;;;;;;;-0.72;100.00;98529.94;105379;1255;60430;-56
2023/11/26 02:02:10;;;;;;;63.70;40.60;;;;;;;-0.69;100.00;98529.02;105134;1262;60549;-57
2023/11/26 02:04:38;;;;;;;70.70;42.60;;;;;;;-0.69;100.00;98526.02;105199;1259;75800;-55
2023/11/26 02:07:05;;;;;;;70.70;43.10;;;;;;;-0.71;100.00;98518.13;105206;1260;66002;-56
2023/11/26 02:09:33;;;;;;;70.90;43.90;;;;;;;-0.76;100.00;98512.05;105162;1261;71467;-57
2023/11/26 02:12:00;;;;;;;75.20;45.50;;;;;;;-0.82;100.00;98501.96;105210;1261;60484;-57
2023/11/26 02:14:28;;;;;;;82.40;47.50;;;;;;;-0.89;100.00;98496.14;105252;1255;62255;-56
2023/11/26 02:16:55;;;;;;;86.00;50.10;;;;;;;-0.96;100.00;98488.55;105385;1260;72676;-56
2023/11/26 02:19:34;;;;;;;92.50;54.10;;;;;;;-1.01;100.00;98483.58;105326;1256;66003;-54
2023/11/26 02:22:02;;;;;;;82.30;46.70;;;;;;;-1.08;100.00;98475.62;105732;1261;72776;-57
2023/11/26 02:24:30;;;;;;;78.50;47.20;;;;;;;-1.13;100.00;98473.10;105216;1256;60423;-53
2023/11/26 02:26:58;;;;;;;80.40;47.30;;;;;;;-1.17;100.00;98461.38;105635;1261;60449;-56
2023/11/26 02:29:25;;;;;;;76.30;45.80;;;;;;;-1.21;100.00;98458.30;105083;1260;72757;-54
2023/11/26 02:31:53;;;;;;;82.40;49.50;;;;;;;-1.25;100.00;98456.45;105250;1260;66844;-55
2023/11/26 02:34:22;;;;;;;81.00;47.30;;;;;;;-1.28;100.00;98450.20;105452;1256;72730;-55
2023/11/26 02:36:49;;;;;;;70.90;42.40;;;;;;;-1.29;100.00;98446.54;105071;1255;61349;-55
2023/11/26 02:39:18;;;;;;;76.20;44.80;;;;;;;-1.30;100.00;98452.00;105790;1262;60549;-55
2023/11/26 02:41:46;;;;;;;75.50;43.20;;;;;;;-1.30;100.00;98450.23;105178;1255;72626;-54
2023/11/26 02:44:13;;;;;;;77.70;44.60;;;;;;;-1.30;100.00;98449.00;105131;1256;67089;-55
2023/11/26 02:46:42;;;;;;;71.30;41.00;;;;;;;-1.28;100.00;98435.95;105036;1256;72000;-55
2023/11/26 02:49:10;;;;;;;71.90;41.80;;;;;;;-1.24;100.00;98431.98;105153;1260;60566;-55
2023/11/26 02:51:37;;;;;;;73.70;43.40;;;;;;;-1.24;100.00;98427.21;105080;1253;60445;-55
2023/11/26 02:54:05;;;;;;;73.90;43.60;;;;;;;-1.23;100.00;98422.79;105084;1255;74821;-56
2023/11/26 02:56:33;;;;;;;71.10;43.00;;;;;;;-1.21;100.00;98415.55;105095;1261;66606;-55
2023/11/26 02:59:00;;;;;;;73.20;42.70;;;;;;;-1.24;100.00;98415.23;105288;1256;72723;-54
2023/11/26 03:01:29;;;;;;;74.30;41.50;;;;;;;-1.26;100.00;98415.83;106956;1256;60497;-57
2023/11/26 03:03:57;;;;;;;75.10;41.80;;;;;;;-1.30;100.00;98414.16;106049;1261;60501;-56
2023/11/26 03:06:28;;;;;;;73.00;43.30;;;;;;;-1.34;100.00;98411.07;105228;1255;72645;-57
2023/11/26 03:09:11;;;;;;;80.00;41.60;;;;;;;-1.37;100.00;98407.63;105119;1256;67077;-57
2023/11/26 03:14:25;;;;;;;70.40;41.60;;;;;;;-1.44;100.00;98405.67;105129;1256;61086;-57
2023/11/26 03:16:54;;;;;;;67.70;40.40;;;;;;;-1.48;100.00;98404.70;105355;1256;60743;-53
2023/11/26 03:19:22;;;;;;;69.60;41.00;;;;;;;-1.52;100.00;98409.36;105806;1259;72734;-55
2023/11/26 03:21:53;;;;;;;69.80;37.90;;;;;;;-1.55;100.00;98420.16;105841;1256;67132;-54
2023/11/26 03:24:20;;;;;;;60.10;35.50;;;;;;;-1.57;100.00;98427.77;105219;1255;72007;-57
2023/11/26 03:26:48;;;;;;;64.30;33.80;;;;;;;-1.59;100.00;98424.62;105116;1261;60462;-58
2023/11/26 03:29:15;;;;;;;56.60;35.20;;;;;;;-1.56;100.00;98429.51;105253;1259;60504;-57
2023/11/26 03:31:44;;;;;;;58.50;34.60;;;;;;;-1.50;100.00;98428.66;105128;1257;74382;-54
2023/11/26 03:34:12;;;;;;;62.10;35.10;;;;;;;-1.46;100.00;98427.36;105184;1260;65175;-54
2023/11/26 03:36:41;;;;;;;58.90;34.90;;;;;;;-1.43;100.00;98425.17;108793;1255;71071;-57
2023/11/26 03:39:08;;;;;;;61.80;33.50;;;;;;;-1.42;100.00;98424.79;108243;1255;60845;-54
2023/11/26 03:41:36;;;;;;;59.90;35.30;;;;;;;-1.38;100.00;98413.10;105196;1259;60608;-56
2023/11/26 03:44:03;;;;;;;60.30;34.20;;;;;;;-1.36;100.00;98406.88;105121;1260;73901;-56
2023/11/26 03:46:32;;;;;;;56.20;33.40;;;;;;;-1.34;100.00;98413.53;105094;1259;66773;-54
2023/11/26 03:49:01;;;;;;;54.20;30.60;;;;;;;-1.33;100.00;98422.31;108881;1255;73240;-55
2023/11/26 03:51:28;;;;;;;58.80;32.40;;;;;;;-1.34;100.00;98423.91;108717;1255;60951;-55
2023/11/26 03:53:56;;;;;;;47.20;29.30;;;;;;;-1.34;100.00;98429.73;108714;1254;58819;-55
2023/11/26 03:56:24;;;;;;;46.90;30.90;;;;;;;-1.34;100.00;98437.11;108745;1260;74244;-55
2023/11/26 03:58:51;;;;;;;53.20;31.30;;;;;;;-1.34;100.00;98446.09;108901;1255;65773;-56
2023/11/26 04:01:19;;;;;;;45.30;28.20;;;;;;;-1.32;100.00;98454.32;108528;1255;72652;-57
2023/11/26 04:03:46;;;;;;;47.50;29.90;;;;;;;-1.29;100.00;98457.77;108731;1255;60952;-55
2023/11/26 04:06:14;;;;;;;48.40;29.00;;;;;;;-1.26;100.00;98464.92;108780;1255;58790;-56
2023/11/26 04:08:41;;;;;;;46.50;28.60;;;;;;;-1.24;100.00;98466.63;108696;1254;73999;-56
2023/11/26 04:11:09;;;;;;;51.10;30.20;;;;;;;-1.23;100.00;98463.80;108795;1255;66679;-56
2023/11/26 04:13:37;;;;;;;48.90;30.70;;;;;;;-1.21;100.00;98462.89;106423;1260;72865;-57
2023/11/26 04:16:07;;;;;;;54.70;28.80;;;;;;;-1.21;100.00;98459.72;107805;1255;60702;-55
2023/11/26 04:18:35;;;;;;;58.30;31.70;;;;;;;-1.22;100.00;98459.91;105495;1260;60590;-55
2023/11/26 04:21:05;;;;;;;55.40;33.10;;;;;;;-1.23;100.00;98456.05;105143;1260;74591;-57
2023/11/26 04:23:32;;;;;;;60.80;34.50;;;;;;;-1.25;100.00;98454.17;105491;1259;65497;-54
2023/11/26 04:26:00;;;;;;;55.90;31.30;;;;;;;-1.30;100.00;98447.95;105246;1260;72749;-55
2023/11/26 04:28:28;;;;;;;56.00;33.40;;;;;;;-1.35;100.00;98438.55;105141;1253;60554;-57
2023/11/26 04:30:55;;;;;;;49.80;30.20;;;;;;;-1.42;100.00;98439.05;105051;1260;60332;-56
2023/11/26 04:33:24;;;;;;;49.50;28.20;;;;;;;-1.49;100.00;98433.73;107788;1260;72835;-54
2023/11/26 04:35:51;;;;;;;49.50;27.20;;;;;;;-1.54;100.00;98427.50;105217;1255;67957;-57
2023/11/26 04:38:18;;;;;;;51.80;28.60;;;;;;;-1.56;100.00;98426.34;105414;1254;72492;-56
2023/11/26 04:40:46;;;;;;;44.60;26.00;;;;;;;-1.57;100.00;98423.89;108746;1255;59920;-58
2023/11/26 04:43:13;;;;;;;38.90;24.20;;;;;;;-1.56;100.00;98424.23;106387;1256;61320;-56
2023/11/26 04:45:41;;;;;;;44.80;26.40;;;;;;;-1.56;100.00;98425.98;105184;1260;72091;-54
2023/11/26 04:48:08;;;;;;;46.30;26.50;;;;;;;-1.57;100.00;98427.91;105213;1256;65781;-56
2023/11/26 04:50:36;;;;;;;45.00;24.70;;;;;;;-1.56;100.00;98434.77;105116;1260;71419;-54
2023/11/26 04:53:04;;;;;;;43.90;25.60;;;;;;;-1.57;100.00;98437.27;105232;1260;61183;-57
2023/11/26 04:55:31;;;;;;;44.00;25.90;;;;;;;-1.57;100.00;98441.84;105108;1260;60487;-57
2023/11/26 04:57:59;;;;;;;47.40;25.30;;;;;;;-1.59;100.00;98432.71;105402;1260;71370;-57
2023/11/26 05:00:28;;;;;;;42.30;24.30;;;;;;;-1.61;100.00;98435.38;105025;1261;66340;-55
2023/11/26 05:02:56;;;;;;;46.90;24.50;;;;;;;-1.63;100.00;98433.86;105144;1260;71461;-57
2023/11/26 05:05:23;;;;;;;39.20;23.80;;;;;;;-1.63;100.00;98433.35;105053;1261;60970;-58
2023/11/26 05:07:51;;;;;;;42.20;24.00;;;;;;;-1.62;100.00;98431.73;105027;1261;60354;-55
2023/11/26 05:10:19;;;;;;;39.50;23.60;;;;;;;-1.62;100.00;98427.17;105216;1260;73841;-56
2023/11/26 05:12:47;;;;;;;36.40;22.00;;;;;;;-1.62;100.00;98434.20;105098;1260;66980;-56
2023/11/26 05:15:14;;;;;;;34.50;20.30;;;;;;;-1.65;100.00;98439.52;105280;1261;70064;-58
2023/11/26 05:17:42;;;;;;;38.30;21.10;;;;;;;-1.66;100.00;98434.28;105137;1260;60549;-56
2023/11/26 05:20:13;;;;;;;42.00;22.90;;;;;;;-1.66;100.00;98432.70;105168;1260;60491;-58
2023/11/26 05:22:41;;;;;;;39.60;22.90;;;;;;;-1.65;100.00;98429.86;105953;1256;72856;-55
2023/11/26 05:25:09;;;;;;;43.10;23.00;;;;;;;-1.64;100.00;98436.54;105075;1259;65812;-56
2023/11/26 05:27:37;;;;;;;40.30;22.90;;;;;;;-1.63;100.00;98440.91;107866;1260;72146;-55
2023/11/26 05:30:06;;;;;;;41.10;23.80;;;;;;;-1.60;100.00;98447.00;105039;1260;60655;-55
2023/11/26 05:32:34;;;;;;;48.00;26.50;;;;;;;-1.59;100.00;98454.52;102734;1259;3323363;-55
2023/11/26 05:36:05;;;;;;;43.80;24.30;;;;;;;-1.55;100.00;98517.08;102133;1291;601425;-57
2023/11/26 05:38:32;;;;;;;40.30;23.60;;;;;;;-1.54;100.00;98518.81;104888;1267;60919;-56
2023/11/26 05:41:00;;;;;;;45.80;24.20;;;;;;;-1.51;100.00;98511.89;104426;1266;59207;-56
2023/11/26 05:43:29;;;;;;;43.50;24.00;;;;;;;-1.49;100.00;98501.83;104429;1272;72530;-57
2023/11/26 05:45:57;;;;;;;49.50;26.40;;;;;;;-1.47;100.00;98491.60;104629;1271;66868;-58
2023/11/26 05:48:25;;;;;;;46.20;26.30;;;;;;;-1.45;100.00;98482.23;103766;1271;73533;-56
2023/11/26 05:50:53;;;;;;;52.40;25.90;;;;;;;-1.42;100.00;98476.71;101763;1269;61402;-54
2023/11/26 05:53:20;;;;;;;46.00;25.60;;;;;;;-1.38;100.00;98470.30;103954;1266;59466;-55
2023/11/26 05:55:48;;;;;;;42.60;24.70;;;;;;;-1.33;100.00;98467.02;103930;1264;59398;-54
2023/11/26 05:58:15;;;;;;;41.90;24.10;;;;;;;-1.29;100.00;98473.09;104502;1268;59019;-53
2023/11/26 06:00:43;;;;;;;47.40;25.40;;;;;;;-1.25;100.00;98476.15;104503;1269;72930;-57
2023/11/26 06:03:10;;;;;;;42.80;23.40;;;;;;;-1.19;100.00;98473.56;104699;1270;59758;-54
2023/11/26 06:05:38;;;;;;;37.30;22.80;;;;;;;-1.14;100.00;98472.77;104353;1268;60080;-56
2023/11/26 06:08:05;;;;;;;42.80;23.10;;;;;;;-1.09;100.00;98471.95;104149;1264;73663;-53
2023/11/26 06:10:32;;;;;;;37.60;23.20;;;;;;;-1.06;100.00;98470.48;104349;1265;67813;-53
2023/11/26 06:13:00;;;;;;;40.70;23.20;;;;;;;-1.02;100.00;98473.38;104111;1266;72876;-54
2023/11/26 06:15:27;;;;;;;42.20;23.50;;;;;;;-1.00;100.00;98479.13;104417;1267;61405;-54
2023/11/26 06:17:55;;;;;;;40.30;21.30;;;;;;;-0.98;100.00;98483.33;104720;1264;60540;-54
2023/11/26 06:20:23;;;;;;;38.10;20.60;;;;;;;-0.97;100.00;98478.55;105899;1263;71830;-55
2023/11/26 06:22:50;;;;;;;30.40;18.80;;;;;;;-0.97;100.00;98477.85;108346;1268;65930;-55
2023/11/26 06:25:18;;;;;;;36.00;20.80;;;;;;;-0.97;100.00;98478.71;108428;1262;72963;-55
2023/11/26 06:27:45;;;;;;;35.20;20.20;;;;;;;-0.95;100.00;98480.62;108460;1262;59748;-55
2023/11/26 06:30:14;;;;;;;32.40;19.90;;;;;;;-0.94;100.00;98477.94;108497;1262;59207;-56
2023/11/26 06:32:42;;;;;;;43.80;24.40;;;;;;;-0.92;100.00;98474.02;108466;1264;73218;-55
2023/11/26 06:35:10;;;;;;;41.80;23.50;;;;;;;-0.90;100.00;98475.03;108543;1264;66994;-55
2023/11/26 06:37:38;;;;;;;41.70;22.80;;;;;;;-0.86;100.00;98471.96;107454;1266;71474;-53
2023/11/26 06:40:08;;;;;;;39.80;22.70;;;;;;;-0.82;100.00;98466.74;108524;1260;60986;-55
2023/11/26 06:42:39;;;;;;;39.70;20.90;;;;;;;-0.78;100.00;98468.23;107273;1263;58818;-56
2023/11/26 06:45:08;;;;;;;38.50;21.20;;;;;;;-0.76;100.00;98464.48;104492;1269;73783;-52
2023/11/26 06:47:36;;;;;;;38.80;21.60;;;;;;;-0.73;100.00;98462.31;108751;1258;66200;-56
2023/11/26 06:50:04;;;;;;;39.90;22.80;;;;;;;-0.70;100.00;98459.43;108698;1261;71455;-56
2023/11/26 06:52:33;;;;;;;34.50;20.70;;;;;;;-0.66;100.00;98457.56;108552;1262;60706;-57
2023/11/26 06:55:01;;;;;;;37.80;20.90;;;;;;;-0.64;100.00;98454.35;108681;1257;58534;-56
2023/11/26 06:57:29;;;;;;;34.50;20.80;;;;;;;-0.62;100.00;98452.71;108732;1260;72841;-58
2023/11/26 06:59:56;;;;;;;34.70;20.90;;;;;;;-0.60;100.00;98444.05;108715;1260;65834;-57
2023/11/26 07:02:25;;;;;;;40.80;21.20;;;;;;;-0.59;100.00;98442.42;108559;1260;72861;-57
2023/11/26 07:04:52;;;;;;;36.10;20.50;;;;;;;-0.56;100.00;98437.41;108557;1260;59691;-56
2023/11/26 07:07:20;;;;;;;30.50;18.00;;;;;;;-0.54;100.00;98433.83;108707;1257;58824;-56
2023/11/26 07:09:48;;;;;;;27.20;18.50;;;;;;;-0.51;100.00;98436.93;108768;1257;71860;-56
2023/11/26 07:12:15;;;;;;;36.20;22.20;;;;;;;-0.49;100.00;98436.52;108598;1263;67169;-56
2023/11/26 07:14:46;;;;;;;37.60;22.40;;;;;;;-0.45;100.00;98429.75;105812;1258;72758;-54
2023/11/26 07:17:13;;;;;;;31.00;21.20;;;;;;;-0.41;100.00;98430.33;104877;1259;61738;-53
2023/11/26 07:19:41;;;;;;;29.50;17.70;;;;;;;-0.37;100.00;98426.36;104913;1262;60028;-55
2023/11/26 07:22:11;;;;;;;26.70;16.60;;;;;;;-0.33;100.00;98425.89;105081;1261;73121;-56
2023/11/26 07:24:40;;;;;;;35.00;17.30;;;;;;;-0.28;100.00;98427.02;105000;1261;66229;-55
2023/11/26 07:27:07;;;;;;;30.00;16.20;;;;;;;-0.26;100.00;98426.25;107917;1258;71084;-54
2023/11/26 07:29:35;;;;;;;30.00;15.80;;;;;;;-0.28;100.00;98418.91;104913;1264;61017;-56
2023/11/26 07:32:03;;;;;;;34.30;16.30;;;;;;;-0.28;100.00;98419.80;104898;1261;60729;-53
2023/11/26 07:34:30;;;;;;;26.50;15.60;;;;;;;-0.29;100.00;98414.52;105163;1262;71670;-55
2023/11/26 07:36:58;;;;;;;32.20;16.10;;;;;;;-0.29;100.00;98417.17;104919;1261;67467;-56
2023/11/26 07:39:26;;;;;;;27.60;16.70;;;;;;;-0.29;100.00;98415.59;105056;1261;70877;-55
2023/11/26 07:41:54;;;;;;;26.70;15.60;;;;;;;-0.30;100.00;98409.96;105162;1263;60061;-56
2023/11/26 07:44:22;;;;;;;23.50;13.40;;;;;;;-0.30;100.00;98403.98;105076;1261;59689;-55
2023/11/26 07:46:50;;;;;;;26.60;13.60;;;;;;;-0.28;100.00;98400.74;105055;1261;73122;-55
2023/11/26 07:49:17;;;;;;;23.50;14.30;;;;;;;-0.27;100.00;98400.38;105001;1260;66057;-55
2023/11/26 07:51:47;;;;;;;20.30;12.50;;;;;;;-0.29;100.00;98411.16;106021;1257;72767;-55
2023/11/26 07:54:15;;;;;;;21.80;13.30;;;;;;;-0.32;100.00;98406.64;105053;1258;60310;-56
2023/11/26 07:56:51;;;;;;;21.00;13.00;;;;;;;-0.32;100.00;98407.02;105004;1267;59644;-56
2023/11/26 07:59:19;;;;;;;22.30;13.70;;;;;;;-0.32;100.00;98407.02;104882;1261;72491;-55
2023/11/26 08:01:50;;;;;;;25.70;13.50;;;;;;;-0.32;100.00;98407.35;104926;1258;67441;-56
2023/11/26 08:04:18;;;;;;;20.20;12.70;;;;;;;-0.32;100.00;98410.88;105341;1257;72791;-55
2023/11/26 08:06:47;;;;;;;23.80;13.00;;;;;;;-0.33;100.00;98410.91;106683;1261;60008;-55
2023/11/26 08:09:17;;;;;;;25.40;14.20;;;;;;;-0.31;100.00;98409.64;105812;1263;58856;-55
2023/11/26 08:11:45;;;;;;;23.70;12.60;;;;;;;-0.30;100.00;98401.67;104388;1264;73066;-56
2023/11/26 08:14:13;;;;;;;21.70;11.60;;;;;;;-0.28;100.00;98398.28;104633;1264;66109;-55
2023/11/26 08:16:41;;;;;;;24.40;13.70;;;;;;;-0.28;100.00;98399.52;104432;1259;71589;-54
2023/11/26 08:19:18;;;;;;;27.40;13.50;;;;;;;-0.28;100.00;98397.58;105787;1257;61967;-51
2023/11/26 08:21:47;;;;;;;27.40;13.30;;;;;;;-0.26;100.00;98393.98;104755;1257;60465;-54
2023/11/26 08:24:18;;;;;;;21.80;12.20;;;;;;;-0.24;100.00;98391.44;104778;1260;70874;-53
2023/11/26 08:26:46;;;;;;;21.70;11.90;;;;;;;-0.22;100.00;98390.17;105431;1258;67230;-56
2023/11/26 08:29:18;;;;;;;19.70;11.70;;;;;;;-0.22;100.00;98392.30;104529;1258;70410;-53
2023/11/26 08:31:49;;;;;;;27.30;12.60;;;;;;;-0.23;100.00;98391.44;104836;1257;60982;-53
2023/11/26 08:34:17;;;;;;;18.10;11.20;;;;;;;-0.24;100.00;98388.45;104849;1261;59895;-54
2023/11/26 08:36:45;;;;;;;18.80;12.40;;;;;;;-0.21;100.00;98391.73;104953;1257;73103;-54
2023/11/26 08:39:25;;;;;;;17.30;10.80;;;;;;;-0.19;100.00;98385.88;104087;1256;65343;-54
2023/11/26 08:41:54;;;;;;;19.70;10.60;;;;;;;-0.19;100.00;98386.94;104486;1263;71435;-54
2023/11/26 08:44:22;;;;;;;19.70;9.20;;;;;;;-0.19;100.00;98378.48;104441;1257;60971;-55
2023/11/26 08:46:49;;;;;;;18.00;9.90;;;;;;;-0.17;100.00;98374.89;105177;1260;60097;-54
2023/11/26 08:49:22;;;;;;;14.40;9.00;;;;;;;-0.16;100.00;98378.02;104390;1258;73299;-55
2023/11/26 08:51:49;;;;;;;15.60;8.90;;;;;;;-0.15;100.00;98375.52;104708;1260;66859;-54
2023/11/26 08:54:18;;;;;;;17.20;9.60;;;;;;;-0.12;100.00;98369.27;104432;1264;71409;-54
2023/11/26 08:56:45;;;;;;;14.70;9.70;;;;;;;-0.09;100.00;98365.68;105795;1259;60726;-54
2023/11/26 08:59:13;;;;;;;12.20;8.60;;;;;;;-0.08;100.00;98356.98;104987;1264;59666;-53
2023/11/26 09:01:40;;;;;;;16.40;9.40;;;;;;;-0.08;100.00;98347.13;104977;1257;73601;-53
2023/11/26 09:04:08;;;;;;;15.00;8.80;;;;;;;-0.10;100.00;98334.66;104927;1262;66213;-53
2023/11/26 09:06:38;;;;;;;11.70;7.80;;;;;;;-0.09;100.00;98330.92;105012;1263;71405;-56
2023/11/26 09:09:07;;;;;;;15.20;7.50;;;;;;;-0.07;100.00;98319.92;108667;1257;59680;-53
2023/11/26 09:11:34;;;;;;;11.90;7.80;;;;;;;-0.07;100.00;98316.22;106241;1259;59481;-54
2023/11/26 09:14:01;;;;;;;12.50;8.80;;;;;;;-0.07;100.00;98304.92;104879;1263;74921;-55
2023/11/26 09:16:35;;;;;;;13.30;7.80;;;;;;;-0.05;100.00;98302.94;105163;1262;68414;-54
2023/11/26 09:19:03;;;;;;;17.40;10.60;;;;;;;-0.05;100.00;98295.52;105117;1267;72396;-54
2023/11/26 09:21:31;;;;;;;12.30;6.30;;;;;;;-0.05;100.00;98286.71;107559;1260;61217;-53
2023/11/26 09:23:58;;;;;;;9.80;7.30;;;;;;;-0.07;100.00;98284.29;105069;1262;59803;-53
2023/11/26 09:26:28;;;;;;;10.20;7.00;;;;;;;-0.08;100.00;98279.58;108487;1257;72800;-54
2023/11/26 09:28:56;;;;;;;9.10;5.60;;;;;;;-0.08;100.00;98276.25;108642;1257;67753;-54
2023/11/26 09:31:24;;;;;;;6.80;5.60;;;;;;;-0.08;100.00;98272.52;105283;1260;72126;-54
2023/11/26 09:33:52;;;;;;;9.20;5.70;;;;;;;-0.09;100.00;98267.25;105074;1261;60948;-53
2023/11/26 09:36:19;;;;;;;9.10;5.20;;;;;;;-0.09;100.00;98264.27;105041;1260;59683;-54
2023/11/26 09:38:47;;;;;;;8.60;5.70;;;;;;;-0.10;100.00;98259.71;108683;1257;72060;-54
2023/11/26 09:41:20;;;;;;;9.30;5.70;;;;;;;-0.09;100.00;98250.88;108656;1257;65974;-55
2023/11/26 09:43:48;;;;;;;7.90;4.80;;;;;;;-0.07;100.00;98244.46;108568;1257;72549;-55
2023/11/26 09:46:16;;;;;;;9.00;6.30;;;;;;;-0.06;100.00;98241.61;108622;1258;62108;-55
2023/11/26 09:48:45;;;;;;;8.80;5.70;;;;;;;-0.05;100.00;98243.36;108587;1257;58804;-56
2023/11/26 09:51:13;;;;;;;13.10;6.20;;;;;;;-0.05;100.00;98233.46;108955;1254;73857;-55
2023/11/26 09:53:41;;;;;;;7.20;5.20;;;;;;;-0.05;100.00;98229.06;108967;1257;66270;-56
2023/11/26 09:56:10;;;;;;;7.60;4.60;;;;;;;-0.06;100.00;98213.38;108734;1257;73487;-56
2023/11/26 09:58:40;;;;;;;10.20;5.80;;;;;;;-0.06;100.00;98209.52;109034;1254;60144;-56
2023/11/26 10:01:08;;;;;;;7.60;5.20;;;;;;;-0.07;100.00;98206.70;109008;1254;60070;-56
2023/11/26 10:04:00;;;;;;;9.80;6.20;;;;;;;-0.04;100.00;98200.13;109009;1254;73084;-56
2023/11/26 10:06:28;;;;;;;7.40;5.40;;;;;;;-0.03;100.00;98198.48;109019;1254;65634;-55
2023/11/26 10:08:57;;;;;;;7.90;5.70;;;;;;;-0.02;100.00;98201.11;108938;1256;72724;-56
2023/11/26 10:11:25;;;;;;;5.80;4.10;;;;;;;0.01;100.00;98199.28;108904;1257;60529;-56
2023/11/26 10:13:53;;;;;;;10.20;3.70;;;;;;;0.04;100.00;98197.93;109060;1254;59994;-55
2023/11/26 10:16:35;;;;;;;6.30;3.80;;;;;;;0.05;100.00;98187.16;105308;1257;73170;-54
2023/11/26 10:19:03;;;;;;;7.30;4.20;;;;;;;0.06;100.00;98183.59;105630;1254;66737;-52
2023/11/26 10:21:31;;;;;;;8.00;3.80;;;;;;;0.06;100.00;98185.71;105910;1255;72129;-56
2023/11/26 10:24:01;;;;;;;4.70;2.80;;;;;;;0.07;100.00;98184.45;105512;1254;60467;-54
2023/11/26 10:26:29;;;;;;;4.20;3.60;;;;;;;0.06;100.00;98179.87;107874;1254;60035;-56
2023/11/26 10:29:00;;;;;;;7.20;4.10;;;;;;;0.06;100.00;98176.36;106158;1258;74257;-54
2023/11/26 10:31:28;;;;;;;5.80;3.90;;;;;;;0.08;100.00;98178.77;105490;1258;67262;-52
2023/11/26 10:34:17;;;;;;;5.30;4.30;;;;;;;0.07;100.00;98175.43;105088;1257;71513;-52
2023/11/26 10:36:44;;;;;;;10.70;5.80;;;;;;;0.08;100.00;98180.16;105771;1256;60572;-54
2023/11/26 10:39:12;;;;;;;6.10;3.60;;;;;;;0.08;100.00;98182.85;105322;1257;60297;-54
2023/11/26 10:41:40;;;;;;;11.40;4.80;;;;;;;0.06;100.00;98184.48;105283;1254;72978;-54
2023/11/26 10:44:08;;;;;;;10.90;4.50;;;;;;;0.05;100.00;98192.27;105386;1253;67022;-54
2023/11/26 10:46:36;;;;;;;7.00;3.60;;;;;;;0.05;100.00;98195.61;105316;1259;71009;-49
2023/11/26 10:49:14;;;;;;;6.60;4.20;;;;;;;0.03;100.00;98196.38;105455;1254;60636;-51
2023/11/26 10:51:48;;;;;;;7.50;3.70;;;;;;;0.03;100.00;98205.88;105420;1254;60450;-53
2023/11/26 10:54:25;;;;;;;9.00;4.30;;;;;;;0.03;100.00;98211.53;108938;1254;74307;-55
2023/11/26 10:56:54;;;;;;;6.80;4.20;;;;;;;0.06;100.00;98216.06;108869;1256;66959;-55
2023/11/26 10:59:21;;;;;;;7.20;3.30;;;;;;;0.07;100.00;98213.73;108810;1254;71500;-54
2023/11/26 11:01:48;;;;;;;7.80;4.00;;;;;;;0.08;100.00;98212.98;105255;1260;60890;-55
2023/11/26 11:04:16;;;;;;;6.90;3.60;;;;;;;0.10;100.00;98210.43;106179;1259;60368;-53
2023/11/26 11:06:44;;;;;;;12.80;4.90;;;;;;;0.12;100.00;98206.13;105096;1256;72684;-55
2023/11/26 11:09:17;;;;;;;3.40;2.60;;;;;;;0.14;100.00;98204.52;105377;1257;65674;-55
2023/11/26 11:11:55;;;;;;;5.00;3.30;;;;;;;0.13;100.00;98198.90;105178;1260;72715;-55
2023/11/26 11:14:23;;;;;;;8.50;3.50;;;;;;;0.12;100.00;98189.20;105390;1256;60525;-54